• Join FlightAware (Why Join?)
  • Login
  • US Flag 
07:53PM EDT


 

Airport Tracker/Info


-or-


 

Live Flight TrackerFlight Track Log ✈ MEDFLT4 ✈ 14-Aug-2013 ✈ KMVY - KBED

Flight Track Log - Related Links

Times and Time Zones

All times are in EDT time to prevent confusion due to time zone crossing. See the MEDFLT4 flight status page for this flight to view local times or setup timezone preferences in your user account.

Time Position Orientation Groundspeed Altitude Reporting Facility
EDT Latitude Longitude Course Direction KTS MPH feet Rate Location/Type
10:06AM 41.6787 -70.5852 North  Level FlightAware Approximate
10:06AM 41.6833 -70.6167 317° Northwest 253 291 5,900  Level KA90
10:07AM 41.7377 -70.5802 North  Level FlightAware Approximate
10:08AM 41.7968 -70.5753 North  Level FlightAware Approximate
10:08AM 41.7500 -70.7000 317° Northwest 256 295 6,000  Level KA90
10:08AM 41.8000 -70.7500 323° Northwest 254 292 5,900  Descending KA90
10:09AM 41.8558 -70.5704 North  Level FlightAware Approximate
10:09AM 41.8500 -70.8167 315° West 251 289 6,000  Level KA90
10:10AM 41.9109 -70.5803 317° Northwest  Level FlightAware Approximate
10:11AM 41.9542 -70.6344 317° Northwest  Level FlightAware Approximate
10:11AM 41.9000 -70.8833 315° West 253 291 6,000  Level KA90
10:11AM 41.9500 -70.9333 323° Northwest 250 288 5,600 -900 Descending KA90
10:12AM 41.9974 -70.6888 317° Northwest  Level FlightAware Approximate
10:12AM 42.0000 -71.0000 315° West 238 274 4,400  Level KA90
10:13AM 42.0500 -71.0500 323° Northwest 239 275 3,800 -720 Descending KA90
10:14AM 42.1000 -71.1000 323° Northwest 237 273 3,000 -420 Descending KA90
10:15AM 42.1500 -71.1667 315° West 233 268 3,000  Level KA90
10:16AM 42.1833 -71.2333 304° West 231 266 3,000  Level KA90
10:17AM 42.2333 -71.3000 315° West 225 259 3,000 -60 Level KA90
10:18AM 42.2833 -71.3167 346° North 237 273 2,900 -480 Descending KA90
10:19AM 42.3500 -71.2833 20° North 230 265 2,100 -480 Descending KA90
10:20AM 42.4000 -71.2500 26° Northeast 181 208 1,900 -420 Descending KA90
10:21AM 42.4500 -71.2333 14° North 143 165 1,300 -720 Descending KA90
10:23AM 42.4667 -71.2500 324° Northwest 128 147 500 -780 Descending KA90
10:25AM 42.4667 -71.2833 North  Level FlightAware Approximate